Terminal Aerodrome Forecast
Issued by NWS

Home | Current Version | Previous Version | Text Only | Print | Product List | Glossary On
Versions: 1 2 3 4 5 6 7 8 9 10 11 12
000
FTUS43 KSGF 110524
TAFBBG
TAF
KBBG 110524Z 1106/1206 15009KT P6SM OVC035 WS020/20040KT
     FM111400 15010KT P6SM BKN025 OVC040
     FM111800 16010KT 6SM -DZ BR SCT007 OVC015
     FM120000 31008KT 6SM BR OVC007=

USA.gov is the U.S. government's official web portal to all federal, state and local government web resources and services.